sensor_id;sensor_type;location;lat;lon;timestamp;pressure;altitude;pressure_sealevel;temperature;humidity
80321;BME280;69633;47.066;15.450;2023-11-19T00:02:08;98185.38;;;6.38;57.43
80321;BME280;69633;47.066;15.450;2023-11-19T00:04:36;98170.47;;;6.47;56.64
80321;BME280;69633;47.066;15.450;2023-11-19T00:07:03;98160.88;;;6.56;56.62
80321;BME280;69633;47.066;15.450;2023-11-19T00:09:29;98160.66;;;6.52;55.78
80321;BME280;69633;47.066;15.450;2023-11-19T00:11:54;98163.94;;;6.44;56.04
80321;BME280;69633;47.066;15.450;2023-11-19T00:14:20;98168.34;;;6.30;56.74
80321;BME280;69633;47.066;15.450;2023-11-19T00:16:46;98159.47;;;6.26;57.11
80321;BME280;69633;47.066;15.450;2023-11-19T00:19:11;98165.44;;;6.31;57.06
80321;BME280;69633;47.066;15.450;2023-11-19T00:21:37;98160.16;;;6.31;57.12
80321;BME280;69633;47.066;15.450;2023-11-19T00:24:03;98159.56;;;6.35;57.45
80321;BME280;69633;47.066;15.450;2023-11-19T00:26:29;98152.59;;;6.44;57.51
80321;BME280;69633;47.066;15.450;2023-11-19T00:28:55;98156.88;;;6.40;58.50
80321;BME280;69633;47.066;15.450;2023-11-19T00:31:21;98153.53;;;6.34;58.13
80321;BME280;69633;47.066;15.450;2023-11-19T00:33:47;98156.03;;;6.44;58.10
80321;BME280;69633;47.066;15.450;2023-11-19T00:36:12;98143.84;;;6.29;58.43
80321;BME280;69633;47.066;15.450;2023-11-19T00:38:38;98136.84;;;6.20;59.12
80321;BME280;69633;47.066;15.450;2023-11-19T00:41:04;98132.56;;;6.05;59.17
80321;BME280;69633;47.066;15.450;2023-11-19T00:43:29;98141.91;;;6.16;58.62
80321;BME280;69633;47.066;15.450;2023-11-19T00:45:55;98146.13;;;6.17;58.43
80321;BME280;69633;47.066;15.450;2023-11-19T00:48:20;98149.41;;;6.28;57.82
80321;BME280;69633;47.066;15.450;2023-11-19T00:50:46;98133.22;;;6.35;57.71
80321;BME280;69633;47.066;15.450;2023-11-19T00:53:11;98134.38;;;6.28;57.98
80321;BME280;69633;47.066;15.450;2023-11-19T00:55:37;98117.50;;;6.29;57.70
80321;BME280;69633;47.066;15.450;2023-11-19T00:58:02;98121.69;;;6.30;57.61
80321;BME280;69633;47.066;15.450;2023-11-19T01:00:28;98125.81;;;6.37;58.21
80321;BME280;69633;47.066;15.450;2023-11-19T01:02:54;98126.44;;;6.47;57.16
80321;BME280;69633;47.066;15.450;2023-11-19T01:05:20;98118.22;;;6.49;57.41
80321;BME280;69633;47.066;15.450;2023-11-19T01:07:49;98115.69;;;6.44;57.40
80321;BME280;69633;47.066;15.450;2023-11-19T01:10:14;98123.97;;;6.37;57.77
80321;BME280;69633;47.066;15.450;2023-11-19T01:12:46;98141.06;;;6.40;57.21
80321;BME280;69633;47.066;15.450;2023-11-19T01:15:12;98137.84;;;6.43;57.70
80321;BME280;69633;47.066;15.450;2023-11-19T01:17:38;98128.94;;;6.39;57.14
80321;BME280;69633;47.066;15.450;2023-11-19T01:20:04;98123.59;;;6.44;56.96
80321;BME280;69633;47.066;15.450;2023-11-19T01:22:32;98110.31;;;6.49;56.97
80321;BME280;69633;47.066;15.450;2023-11-19T01:24:58;98114.69;;;6.58;56.99
80321;BME280;69633;47.066;15.450;2023-11-19T01:27:24;98101.88;;;6.52;57.62
80321;BME280;69633;47.066;15.450;2023-11-19T01:29:50;98096.09;;;6.50;57.54
80321;BME280;69633;47.066;15.450;2023-11-19T01:32:15;98103.84;;;6.41;58.14
80321;BME280;69633;47.066;15.450;2023-11-19T01:34:41;98089.84;;;6.27;58.64
80321;BME280;69633;47.066;15.450;2023-11-19T01:37:07;98095.69;;;6.24;58.61
80321;BME280;69633;47.066;15.450;2023-11-19T01:39:34;98085.41;;;6.22;58.31
80321;BME280;69633;47.066;15.450;2023-11-19T01:42:00;98081.03;;;6.18;58.99
80321;BME280;69633;47.066;15.450;2023-11-19T01:44:25;98075.25;;;5.97;59.99
80321;BME280;69633;47.066;15.450;2023-11-19T01:46:51;98063.13;;;5.96;59.72
80321;BME280;69633;47.066;15.450;2023-11-19T01:49:17;98060.16;;;6.03;60.12
80321;BME280;69633;47.066;15.450;2023-11-19T01:51:45;98063.13;;;6.15;59.58
80321;BME280;69633;47.066;15.450;2023-11-19T01:54:12;98057.00;;;6.19;60.06
80321;BME280;69633;47.066;15.450;2023-11-19T01:56:39;98050.75;;;6.15;60.00
80321;BME280;69633;47.066;15.450;2023-11-19T01:59:09;98055.59;;;6.08;60.40
80321;BME280;69633;47.066;15.450;2023-11-19T02:01:36;98048.00;;;6.07;60.37
80321;BME280;69633;47.066;15.450;2023-11-19T02:04:06;98042.16;;;5.91;61.06
80321;BME280;69633;47.066;15.450;2023-11-19T02:06:34;98036.38;;;5.89;61.47
80321;BME280;69633;47.066;15.450;2023-11-19T02:09:01;98032.63;;;5.95;61.58
80321;BME280;69633;47.066;15.450;2023-11-19T02:11:27;98032.31;;;5.97;61.45
80321;BME280;69633;47.066;15.450;2023-11-19T02:13:57;98022.66;;;5.92;64.42
80321;BME280;69633;47.066;15.450;2023-11-19T02:16:23;98010.25;;;5.93;62.74
80321;BME280;69633;47.066;15.450;2023-11-19T02:18:48;98005.94;;;5.78;63.43
80321;BME280;69633;47.066;15.450;2023-11-19T02:21:14;98005.41;;;5.81;63.09
80321;BME280;69633;47.066;15.450;2023-11-19T02:23:40;98002.97;;;5.84;63.69
80321;BME280;69633;47.066;15.450;2023-11-19T02:26:18;97999.56;;;5.65;64.57
80321;BME280;69633;47.066;15.450;2023-11-19T02:28:50;98000.63;;;5.46;65.73
80321;BME280;69633;47.066;15.450;2023-11-19T02:31:15;97986.66;;;5.45;65.89
80321;BME280;69633;47.066;15.450;2023-11-19T02:33:41;97984.81;;;5.46;65.92
80321;BME280;69633;47.066;15.450;2023-11-19T02:36:08;97985.19;;;5.58;65.59
80321;BME280;69633;47.066;15.450;2023-11-19T02:38:34;97990.50;;;5.53;65.96
80321;BME280;69633;47.066;15.450;2023-11-19T02:41:03;97988.41;;;5.55;66.04
80321;BME280;69633;47.066;15.450;2023-11-19T02:43:31;97994.19;;;5.52;66.19
80321;BME280;69633;47.066;15.450;2023-11-19T02:46:00;97998.19;;;5.49;66.55
80321;BME280;69633;47.066;15.450;2023-11-19T02:48:26;97989.50;;;5.49;67.47
80321;BME280;69633;47.066;15.450;2023-11-19T02:50:52;97977.56;;;5.38;67.73
80321;BME280;69633;47.066;15.450;2023-11-19T02:53:17;97960.56;;;5.30;67.74
80321;BME280;69633;47.066;15.450;2023-11-19T02:55:43;97965.44;;;5.36;67.95
80321;BME280;69633;47.066;15.450;2023-11-19T02:58:14;97962.28;;;5.40;68.02
80321;BME280;69633;47.066;15.450;2023-11-19T03:00:45;97958.66;;;5.35;68.36
80321;BME280;69633;47.066;15.450;2023-11-19T03:03:17;97950.97;;;5.39;68.14
80321;BME280;69633;47.066;15.450;2023-11-19T03:05:46;97941.84;;;5.31;68.54
80321;BME280;69633;47.066;15.450;2023-11-19T03:08:12;97947.03;;;5.36;68.45
80321;BME280;69633;47.066;15.450;2023-11-19T03:10:38;97945.28;;;5.32;68.72
80321;BME280;69633;47.066;15.450;2023-11-19T03:13:04;97946.97;;;5.42;68.25
80321;BME280;69633;47.066;15.450;2023-11-19T03:15:29;97941.28;;;5.34;68.99
80321;BME280;69633;47.066;15.450;2023-11-19T03:17:55;97947.53;;;5.39;68.58
80321;BME280;69633;47.066;15.450;2023-11-19T03:20:21;97940.34;;;5.25;69.17
80321;BME280;69633;47.066;15.450;2023-11-19T03:22:46;97944.91;;;5.20;69.31
80321;BME280;69633;47.066;15.450;2023-11-19T03:25:12;97927.69;;;5.27;69.06
80321;BME280;69633;47.066;15.450;2023-11-19T03:27:38;97929.91;;;5.20;68.72
80321;BME280;69633;47.066;15.450;2023-11-19T03:30:10;97919.94;;;5.17;68.90
80321;BME280;69633;47.066;15.450;2023-11-19T03:32:36;97908.28;;;5.23;68.46
80321;BME280;69633;47.066;15.450;2023-11-19T03:35:02;97909.63;;;5.21;68.50
80321;BME280;69633;47.066;15.450;2023-11-19T03:37:29;97910.59;;;5.06;69.31
80321;BME280;69633;47.066;15.450;2023-11-19T03:39:56;97896.34;;;5.12;68.84
80321;BME280;69633;47.066;15.450;2023-11-19T03:42:27;97897.25;;;5.21;68.24
80321;BME280;69633;47.066;15.450;2023-11-19T03:44:53;97889.22;;;5.31;68.25
80321;BME280;69633;47.066;15.450;2023-11-19T03:47:19;97881.34;;;5.31;67.84
80321;BME280;69633;47.066;15.450;2023-11-19T03:49:49;97874.63;;;5.39;67.41
80321;BME280;69633;47.066;15.450;2023-11-19T03:52:15;97885.59;;;5.46;67.59
80321;BME280;69633;47.066;15.450;2023-11-19T03:54:40;97880.47;;;5.36;67.61
80321;BME280;69633;47.066;15.450;2023-11-19T03:57:06;97879.13;;;5.39;67.58
80321;BME280;69633;47.066;15.450;2023-11-19T03:59:31;97879.31;;;5.42;66.82
80321;BME280;69633;47.066;15.450;2023-11-19T04:01:58;97871.56;;;5.51;66.80
80321;BME280;69633;47.066;15.450;2023-11-19T04:04:26;97865.56;;;5.64;66.43
80321;BME280;69633;47.066;15.450;2023-11-19T04:06:53;97863.00;;;5.59;66.25
80321;BME280;69633;47.066;15.450;2023-11-19T04:09:19;97855.84;;;5.46;66.59
80321;BME280;69633;47.066;15.450;2023-11-19T04:11:44;97862.16;;;5.45;66.29
80321;BME280;69633;47.066;15.450;2023-11-19T04:14:15;97846.88;;;5.47;66.14
80321;BME280;69633;47.066;15.450;2023-11-19T04:16:46;97847.16;;;5.45;66.36
80321;BME280;69633;47.066;15.450;2023-11-19T04:19:12;97840.13;;;5.41;66.63
80321;BME280;69633;47.066;15.450;2023-11-19T04:21:40;97835.91;;;5.58;66.65
80321;BME280;69633;47.066;15.450;2023-11-19T04:24:06;97841.78;;;5.69;65.45
80321;BME280;69633;47.066;15.450;2023-11-19T04:26:32;97837.31;;;5.83;65.67
80321;BME280;69633;47.066;15.450;2023-11-19T04:28:57;97835.75;;;5.82;65.13
80321;BME280;69633;47.066;15.450;2023-11-19T04:31:29;97835.22;;;5.66;65.42
80321;BME280;69633;47.066;15.450;2023-11-19T04:33:54;97817.97;;;5.60;66.31
80321;BME280;69633;47.066;15.450;2023-11-19T04:36:20;97826.91;;;5.46;66.45
80321;BME280;69633;47.066;15.450;2023-11-19T04:38:49;97828.19;;;5.29;67.26
80321;BME280;69633;47.066;15.450;2023-11-19T04:41:15;97835.22;;;5.34;67.07
80321;BME280;69633;47.066;15.450;2023-11-19T04:43:40;97842.78;;;5.22;67.59
80321;BME280;69633;47.066;15.450;2023-11-19T04:46:06;97827.00;;;5.22;67.73
80321;BME280;69633;47.066;15.450;2023-11-19T04:48:31;97829.13;;;5.20;67.76
80321;BME280;69633;47.066;15.450;2023-11-19T04:50:57;97818.88;;;5.18;68.36
80321;BME280;69633;47.066;15.450;2023-11-19T04:53:23;97828.16;;;5.16;67.87
80321;BME280;69633;47.066;15.450;2023-11-19T04:55:48;97823.03;;;5.24;67.62
80321;BME280;69633;47.066;15.450;2023-11-19T04:58:14;97821.38;;;5.28;67.86
80321;BME280;69633;47.066;15.450;2023-11-19T05:00:39;97823.50;;;5.26;67.53
80321;BME280;69633;47.066;15.450;2023-11-19T05:03:05;97822.13;;;5.29;67.93
80321;BME280;69633;47.066;15.450;2023-11-19T05:05:30;97807.00;;;5.40;67.58
80321;BME280;69633;47.066;15.450;2023-11-19T05:07:56;97803.28;;;5.41;67.64
80321;BME280;69633;47.066;15.450;2023-11-19T05:10:22;97798.78;;;5.41;67.28
80321;BME280;69633;47.066;15.450;2023-11-19T05:12:47;97803.69;;;5.48;67.50
80321;BME280;69633;47.066;15.450;2023-11-19T05:15:13;97805.06;;;5.45;67.32
80321;BME280;69633;47.066;15.450;2023-11-19T05:17:39;97798.59;;;5.38;67.98
80321;BME280;69633;47.066;15.450;2023-11-19T05:20:05;97790.22;;;5.35;67.95
80321;BME280;69633;47.066;15.450;2023-11-19T05:22:40;97785.75;;;5.36;67.80
80321;BME280;69633;47.066;15.450;2023-11-19T05:25:06;97775.81;;;5.47;67.89
80321;BME280;69633;47.066;15.450;2023-11-19T05:27:31;97761.88;;;5.60;67.53
80321;BME280;69633;47.066;15.450;2023-11-19T05:29:57;97760.91;;;5.56;67.36
80321;BME280;69633;47.066;15.450;2023-11-19T05:32:22;97763.25;;;5.57;67.35
80321;BME280;69633;47.066;15.450;2023-11-19T05:34:48;97767.25;;;5.55;67.86
80321;BME280;69633;47.066;15.450;2023-11-19T05:37:13;97764.91;;;5.53;67.65
80321;BME280;69633;47.066;15.450;2023-11-19T05:39:39;97768.66;;;5.66;67.35
80321;BME280;69633;47.066;15.450;2023-11-19T05:42:05;97772.22;;;5.70;66.93
80321;BME280;69633;47.066;15.450;2023-11-19T05:44:30;97783.09;;;5.82;66.47
80321;BME280;69633;47.066;15.450;2023-11-19T05:46:56;97781.13;;;5.74;67.49
80321;BME280;69633;47.066;15.450;2023-11-19T05:49:21;97785.97;;;5.67;66.85
80321;BME280;69633;47.066;15.450;2023-11-19T05:51:47;97776.69;;;5.42;67.76
80321;BME280;69633;47.066;15.450;2023-11-19T05:54:13;97764.75;;;5.31;68.41
80321;BME280;69633;47.066;15.450;2023-11-19T05:56:38;97751.56;;;5.17;68.95
80321;BME280;69633;47.066;15.450;2023-11-19T05:59:04;97753.69;;;5.15;68.96
80321;BME280;69633;47.066;15.450;2023-11-19T06:01:34;97762.09;;;5.17;68.76
80321;BME280;69633;47.066;15.450;2023-11-19T06:04:00;97758.50;;;5.27;68.75
80321;BME280;69633;47.066;15.450;2023-11-19T06:06:26;97749.84;;;5.40;67.90
80321;BME280;69633;47.066;15.450;2023-11-19T06:08:52;97746.13;;;5.27;68.54
80321;BME280;69633;47.066;15.450;2023-11-19T06:11:17;97743.78;;;5.26;68.75
80321;BME280;69633;47.066;15.450;2023-11-19T06:13:45;97730.56;;;5.31;68.98
80321;BME280;69633;47.066;15.450;2023-11-19T06:16:11;97722.34;;;5.32;68.12
80321;BME280;69633;47.066;15.450;2023-11-19T06:18:37;97722.16;;;5.29;68.94
80321;BME280;69633;47.066;15.450;2023-11-19T06:21:03;97731.09;;;5.14;69.63
80321;BME280;69633;47.066;15.450;2023-11-19T06:23:28;97744.34;;;5.09;69.63
80321;BME280;69633;47.066;15.450;2023-11-19T06:25:54;97743.56;;;5.09;69.90
80321;BME280;69633;47.066;15.450;2023-11-19T06:28:19;97738.69;;;5.16;69.98
80321;BME280;69633;47.066;15.450;2023-11-19T06:30:45;97747.75;;;5.10;70.15
80321;BME280;69633;47.066;15.450;2023-11-19T06:33:14;97745.88;;;5.10;70.48
80321;BME280;69633;47.066;15.450;2023-11-19T06:35:39;97739.97;;;5.18;70.06
80321;BME280;69633;47.066;15.450;2023-11-19T06:38:05;97727.22;;;5.25;70.29
80321;BME280;69633;47.066;15.450;2023-11-19T06:40:32;97720.31;;;5.29;69.66
80321;BME280;69633;47.066;15.450;2023-11-19T06:42:58;97728.59;;;5.36;70.08
80321;BME280;69633;47.066;15.450;2023-11-19T06:45:24;97729.88;;;5.39;69.54
80321;BME280;69633;47.066;15.450;2023-11-19T06:47:49;97726.84;;;5.32;70.20
80321;BME280;69633;47.066;15.450;2023-11-19T06:50:15;97723.91;;;5.33;69.91
80321;BME280;69633;47.066;15.450;2023-11-19T06:52:41;97721.59;;;5.46;69.55
80321;BME280;69633;47.066;15.450;2023-11-19T06:55:07;97722.72;;;5.72;68.27
80321;BME280;69633;47.066;15.450;2023-11-19T06:57:33;97728.75;;;5.72;67.79
80321;BME280;69633;47.066;15.450;2023-11-19T06:59:58;97724.94;;;5.65;68.63
80321;BME280;69633;47.066;15.450;2023-11-19T07:02:24;97731.00;;;5.79;67.86
80321;BME280;69633;47.066;15.450;2023-11-19T07:04:50;97736.69;;;5.86;67.68
80321;BME280;69633;47.066;15.450;2023-11-19T07:07:16;97733.78;;;5.88;68.09
80321;BME280;69633;47.066;15.450;2023-11-19T07:09:42;97731.41;;;5.86;67.76
80321;BME280;69633;47.066;15.450;2023-11-19T07:12:08;97735.31;;;5.89;67.93
80321;BME280;69633;47.066;15.450;2023-11-19T07:14:34;97736.69;;;5.86;67.48
80321;BME280;69633;47.066;15.450;2023-11-19T07:17:00;97739.63;;;5.98;67.08
80321;BME280;69633;47.066;15.450;2023-11-19T07:19:25;97748.13;;;5.95;66.83
80321;BME280;69633;47.066;15.450;2023-11-19T07:21:51;97741.75;;;5.96;66.13
80321;BME280;69633;47.066;15.450;2023-11-19T07:24:20;97736.69;;;5.86;66.92
80321;BME280;69633;47.066;15.450;2023-11-19T07:26:47;97738.56;;;5.99;66.36
80321;BME280;69633;47.066;15.450;2023-11-19T07:29:13;97738.25;;;6.14;66.58
80321;BME280;69633;47.066;15.450;2023-11-19T07:31:39;97729.44;;;6.32;66.12
80321;BME280;69633;47.066;15.450;2023-11-19T07:34:04;97709.94;;;6.34;65.36
80321;BME280;69633;47.066;15.450;2023-11-19T07:36:31;97699.94;;;6.30;65.08
80321;BME280;69633;47.066;15.450;2023-11-19T07:38:58;97673.22;;;6.23;65.63
80321;BME280;69633;47.066;15.450;2023-11-19T07:41:23;97632.72;;;6.33;64.82
80321;BME280;69633;47.066;15.450;2023-11-19T07:43:50;97643.53;;;6.31;65.07
80321;BME280;69633;47.066;15.450;2023-11-19T07:46:17;97685.94;;;6.21;64.68
80321;BME280;69633;47.066;15.450;2023-11-19T07:48:45;97702.34;;;6.18;64.88
80321;BME280;69633;47.066;15.450;2023-11-19T07:51:13;97705.53;;;6.15;65.35
80321;BME280;69633;47.066;15.450;2023-11-19T07:53:39;97716.19;;;5.97;64.76
80321;BME280;69633;47.066;15.450;2023-11-19T07:56:07;97722.75;;;5.99;64.53
80321;BME280;69633;47.066;15.450;2023-11-19T07:58:33;97701.56;;;6.04;64.75
80321;BME280;69633;47.066;15.450;2023-11-19T08:00:58;97685.06;;;6.12;64.54
80321;BME280;69633;47.066;15.450;2023-11-19T08:03:24;97704.09;;;6.09;64.25
80321;BME280;69633;47.066;15.450;2023-11-19T08:05:50;97720.69;;;5.96;64.13
80321;BME280;69633;47.066;15.450;2023-11-19T08:08:16;97728.88;;;5.81;64.27
80321;BME280;69633;47.066;15.450;2023-11-19T08:10:42;97723.00;;;5.84;64.73
80321;BME280;69633;47.066;15.450;2023-11-19T08:13:09;97725.00;;;5.92;64.81
80321;BME280;69633;47.066;15.450;2023-11-19T08:15:34;97724.56;;;5.85;64.52
80321;BME280;69633;47.066;15.450;2023-11-19T08:18:00;97714.25;;;5.89;65.45
80321;BME280;69633;47.066;15.450;2023-11-19T08:20:25;97721.56;;;6.05;65.03
80321;BME280;69633;47.066;15.450;2023-11-19T08:22:51;97718.16;;;6.05;65.58
80321;BME280;69633;47.066;15.450;2023-11-19T08:25:16;97716.47;;;6.09;65.39
80321;BME280;69633;47.066;15.450;2023-11-19T08:27:42;97704.06;;;6.23;64.96
80321;BME280;69633;47.066;15.450;2023-11-19T08:30:08;97700.31;;;6.38;64.52
80321;BME280;69633;47.066;15.450;2023-11-19T08:32:34;97695.91;;;6.47;64.12
80321;BME280;69633;47.066;15.450;2023-11-19T08:35:00;97686.88;;;6.61;64.03
80321;BME280;69633;47.066;15.450;2023-11-19T08:37:25;97680.91;;;6.69;63.47
80321;BME280;69633;47.066;15.450;2023-11-19T08:39:51;97681.19;;;6.68;63.75
80321;BME280;69633;47.066;15.450;2023-11-19T08:42:17;97673.16;;;6.51;63.76
80321;BME280;69633;47.066;15.450;2023-11-19T08:44:43;97675.53;;;6.39;64.80
80321;BME280;69633;47.066;15.450;2023-11-19T08:47:12;97687.81;;;6.43;64.07
80321;BME280;69633;47.066;15.450;2023-11-19T08:49:39;97661.53;;;6.52;64.72
80321;BME280;69633;47.066;15.450;2023-11-19T08:52:05;97658.59;;;6.75;64.27
80321;BME280;69633;47.066;15.450;2023-11-19T08:54:32;97663.56;;;6.99;62.84
80321;BME280;69633;47.066;15.450;2023-11-19T08:56:58;97667.28;;;6.98;62.98
80321;BME280;69633;47.066;15.450;2023-11-19T08:59:25;97670.50;;;7.17;62.89
80321;BME280;69633;47.066;15.450;2023-11-19T09:01:50;97654.22;;;7.24;62.90
80321;BME280;69633;47.066;15.450;2023-11-19T09:04:16;97654.94;;;7.38;61.84
80321;BME280;69633;47.066;15.450;2023-11-19T09:06:41;97648.63;;;7.56;61.44
80321;BME280;69633;47.066;15.450;2023-11-19T09:09:08;97649.31;;;7.79;60.89
80321;BME280;69633;47.066;15.450;2023-11-19T09:11:34;97646.56;;;8.01;59.91
80321;BME280;69633;47.066;15.450;2023-11-19T09:14:00;97650.31;;;8.26;59.28
80321;BME280;69633;47.066;15.450;2023-11-19T09:16:26;97646.28;;;8.29;59.31
80321;BME280;69633;47.066;15.450;2023-11-19T09:18:51;97657.00;;;8.15;59.58
80321;BME280;69633;47.066;15.450;2023-11-19T09:21:17;97659.88;;;7.88;60.31
80321;BME280;69633;47.066;15.450;2023-11-19T09:23:43;97641.28;;;8.01;60.02
80321;BME280;69633;47.066;15.450;2023-11-19T09:26:09;97629.06;;;8.31;59.65
80321;BME280;69633;47.066;15.450;2023-11-19T09:28:37;97628.13;;;8.36;59.31
80321;BME280;69633;47.066;15.450;2023-11-19T09:31:02;97619.06;;;8.28;59.14
80321;BME280;69633;47.066;15.450;2023-11-19T09:33:31;97622.28;;;7.99;59.66
80321;BME280;69633;47.066;15.450;2023-11-19T09:35:57;97626.69;;;8.12;59.75
80321;BME280;69633;47.066;15.450;2023-11-19T09:38:23;97630.06;;;7.87;60.79
80321;BME280;69633;47.066;15.450;2023-11-19T09:40:48;97624.19;;;8.24;59.73
80321;BME280;69633;47.066;15.450;2023-11-19T09:43:17;97615.84;;;8.40;58.60
80321;BME280;69633;47.066;15.450;2023-11-19T09:45:52;97609.91;;;8.43;58.52
80321;BME280;69633;47.066;15.450;2023-11-19T09:48:18;97608.31;;;8.59;58.47
80321;BME280;69633;47.066;15.450;2023-11-19T09:50:47;97584.03;;;8.74;57.62
80321;BME280;69633;47.066;15.450;2023-11-19T09:53:14;97564.69;;;8.82;57.74
80321;BME280;69633;47.066;15.450;2023-11-19T09:55:41;97573.91;;;8.76;57.62
80321;BME280;69633;47.066;15.450;2023-11-19T09:58:10;97584.16;;;8.86;57.58
80321;BME280;69633;47.066;15.450;2023-11-19T10:00:37;97586.59;;;9.00;57.25
80321;BME280;69633;47.066;15.450;2023-11-19T10:03:04;97594.63;;;9.29;56.38
80321;BME280;69633;47.066;15.450;2023-11-19T10:05:30;97592.81;;;9.42;56.08
80321;BME280;69633;47.066;15.450;2023-11-19T10:07:56;97591.81;;;9.26;56.11
80321;BME280;69633;47.066;15.450;2023-11-19T10:10:21;97575.53;;;9.06;57.08
80321;BME280;69633;47.066;15.450;2023-11-19T10:12:47;97566.31;;;9.12;57.12
80321;BME280;69633;47.066;15.450;2023-11-19T10:15:23;97547.41;;;9.22;57.22
80321;BME280;69633;47.066;15.450;2023-11-19T10:17:49;97536.81;;;9.22;56.86
80321;BME280;69633;47.066;15.450;2023-11-19T10:20:15;97542.44;;;9.30;56.91
80321;BME280;69633;47.066;15.450;2023-11-19T10:22:40;97538.06;;;9.25;56.96
80321;BME280;69633;47.066;15.450;2023-11-19T10:25:23;97532.72;;;9.34;56.81
80321;BME280;69633;47.066;15.450;2023-11-19T10:27:50;97526.16;;;9.40;56.58
80321;BME280;69633;47.066;15.450;2023-11-19T10:30:24;97520.75;;;9.57;55.72
80321;BME280;69633;47.066;15.450;2023-11-19T10:33:19;97508.31;;;9.78;55.57
80321;BME280;69633;47.066;15.450;2023-11-19T10:35:58;97501.88;;;9.79;54.93
80321;BME280;69633;47.066;15.450;2023-11-19T10:38:24;97494.00;;;9.91;54.68
80321;BME280;69633;47.066;15.450;2023-11-19T10:40:51;97497.34;;;9.80;55.29
80321;BME280;69633;47.066;15.450;2023-11-19T10:43:17;97490.25;;;9.92;54.94
80321;BME280;69633;47.066;15.450;2023-11-19T10:45:43;97490.31;;;10.04;54.39
80321;BME280;69633;47.066;15.450;2023-11-19T10:48:09;97488.69;;;10.12;54.05
80321;BME280;69633;47.066;15.450;2023-11-19T10:50:35;97482.00;;;10.06;54.73
80321;BME280;69633;47.066;15.450;2023-11-19T10:53:02;97477.09;;;10.16;54.84
80321;BME280;69633;47.066;15.450;2023-11-19T10:55:33;97472.97;;;9.86;55.36
80321;BME280;69633;47.066;15.450;2023-11-19T10:58:04;97477.19;;;9.87;55.69
80321;BME280;69633;47.066;15.450;2023-11-19T11:03:01;97479.88;;;9.99;55.62
80321;BME280;69633;47.066;15.450;2023-11-19T11:05:29;97481.97;;;10.14;54.42
80321;BME280;69633;47.066;15.450;2023-11-19T11:07:58;97469.97;;;10.29;54.46
80321;BME280;69633;47.066;15.450;2023-11-19T11:10:26;97467.91;;;10.35;54.39
80321;BME280;69633;47.066;15.450;2023-11-19T11:12:52;97462.34;;;10.40;54.03
80321;BME280;69633;47.066;15.450;2023-11-19T11:15:32;97462.31;;;10.15;54.08
80321;BME280;69633;47.066;15.450;2023-11-19T11:18:02;97470.25;;;10.15;54.56
80321;BME280;69633;47.066;15.450;2023-11-19T11:20:29;97477.56;;;10.18;54.37
80321;BME280;69633;47.066;15.450;2023-11-19T11:28:33;97456.84;;;10.12;54.38
80321;BME280;69633;47.066;15.450;2023-11-19T11:37:19;97444.94;;;10.63;54.16
80321;BME280;69633;47.066;15.450;2023-11-19T11:39:46;97435.19;;;10.91;52.36
80321;BME280;69633;47.066;15.450;2023-11-19T11:50:15;97420.41;;;11.42;51.95
80321;BME280;69633;47.066;15.450;2023-11-19T11:57:51;97392.53;;;12.20;50.20
80321;BME280;69633;47.066;15.450;2023-11-19T12:00:37;97393.22;;;12.17;49.63
80321;BME280;69633;47.066;15.450;2023-11-19T12:03:05;97392.28;;;12.25;49.77
80321;BME280;69633;47.066;15.450;2023-11-19T12:05:32;97392.13;;;12.33;49.35
80321;BME280;69633;47.066;15.450;2023-11-19T12:08:04;97384.97;;;12.37;49.68
80321;BME280;69633;47.066;15.450;2023-11-19T12:10:36;97396.97;;;12.16;50.15
80321;BME280;69633;47.066;15.450;2023-11-19T12:13:06;97390.13;;;12.30;50.00
80321;BME280;69633;47.066;15.450;2023-11-19T12:15:32;97379.28;;;12.07;50.47
80321;BME280;69633;47.066;15.450;2023-11-19T12:17:58;97378.53;;;12.23;49.74
80321;BME280;69633;47.066;15.450;2023-11-19T12:20:25;97378.38;;;12.47;49.24
80321;BME280;69633;47.066;15.450;2023-11-19T12:22:52;97374.84;;;12.74;48.72
80321;BME280;69633;47.066;15.450;2023-11-19T12:25:19;97379.38;;;13.08;47.69
80321;BME280;69633;47.066;15.450;2023-11-19T12:27:52;97372.28;;;13.32;47.35
80321;BME280;69633;47.066;15.450;2023-11-19T12:30:25;97372.19;;;14.05;46.13
80321;BME280;69633;47.066;15.450;2023-11-19T12:32:51;97369.63;;;14.80;44.38
80321;BME280;69633;47.066;15.450;2023-11-19T12:35:18;97362.69;;;15.32;43.80
80321;BME280;69633;47.066;15.450;2023-11-19T12:37:49;97362.34;;;15.63;42.33
80321;BME280;69633;47.066;15.450;2023-11-19T12:40:22;97359.47;;;15.82;42.28
80321;BME280;69633;47.066;15.450;2023-11-19T12:42:49;97360.66;;;16.25;41.40
80321;BME280;69633;47.066;15.450;2023-11-19T12:45:15;97359.72;;;16.51;41.12
80321;BME280;69633;47.066;15.450;2023-11-19T12:47:45;97357.97;;;17.27;40.00
80321;BME280;69633;47.066;15.450;2023-11-19T12:50:13;97366.66;;;17.10;39.23
80321;BME280;69633;47.066;15.450;2023-11-19T12:52:39;97359.63;;;16.84;39.30
80321;BME280;69633;47.066;15.450;2023-11-19T12:55:06;97347.66;;;16.71;40.27
80321;BME280;69633;47.066;15.450;2023-11-19T12:57:49;97358.81;;;16.80;40.29
80321;BME280;69633;47.066;15.450;2023-11-19T13:00:22;97354.84;;;17.22;39.04
80321;BME280;69633;47.066;15.450;2023-11-19T13:02:49;97355.09;;;16.96;39.05
80321;BME280;69633;47.066;15.450;2023-11-19T13:07:47;97364.88;;;14.70;43.43
80321;BME280;69633;47.066;15.450;2023-11-19T13:10:12;97358.69;;;14.40;44.16
80321;BME280;69633;47.066;15.450;2023-11-19T13:12:38;97359.53;;;13.79;45.21
80321;BME280;69633;47.066;15.450;2023-11-19T13:15:05;97361.56;;;13.47;46.34
80321;BME280;69633;47.066;15.450;2023-11-19T13:17:30;97360.50;;;13.14;47.83
80321;BME280;69633;47.066;15.450;2023-11-19T13:19:56;97347.19;;;12.98;47.67
80321;BME280;69633;47.066;15.450;2023-11-19T13:22:22;97357.47;;;12.80;48.28
80321;BME280;69633;47.066;15.450;2023-11-19T13:24:48;97370.19;;;12.71;47.86
80321;BME280;69633;47.066;15.450;2023-11-19T13:27:13;97356.13;;;12.55;48.07